Bowling Green, MO (63334)

12:17 PM CDT on August 28, 2015 (GMT -0500)
N0YWD | | Change Station
CLOSE
Current Station
Personal Weather Station
Location: Louisiana, MO
Elevation: 525 ft
Nearby Weather Stations

Elev 525 ft 39.44 °N, 91.06 °W | Updated 2 minutes ago

Mostly Cloudy
Mostly Cloudy
74.9 °F
Feels Like 77 °F
N
0.0
Wind Variable Wind from SSE
Gusts 11.0 mph

Today
High -- | Low -- °F
--% Chance of Precip.
Yesterday
High -- | Low -- °F
Precip. -- in
6:29 AM 7:42 PM
Waxing Gibbous, 98% visible
Pressure 30.08 in
Visibility 10.0 miles
Clouds Clear
Heat Index 77 °F
Dew Point 64 °F
Humidity 68%
Rainfall 0.00 in
Snow Depth Not available.
UV 9 out of 12
Pollen 10.50 out of 12
Air Quality Not available.
Flu Activity Not available.
METAR KHAE 281655Z AUTO 14005KT 10SM CLR 22/15 A3008 RMK AO2
Pressure 30.08 in
Visibility 10.0 miles
Clouds Clear
Heat Index 77 °F
Dew Point 64 °F
Humidity 68%
Rainfall 0.00 in
Snow Depth Not available.
UV 9 out of 12
Pollen 10.50 out of 12
Air Quality Not available.
Flu Activity Not available.
METAR KHAE 281655Z AUTO 14005KT 10SM CLR 22/15 A3008 RMK AO2

10-Day Weather Forecast

×

Almanac

Astronomy

Aug. 28, 2015 Rise Set
Actual Time
Civil Twilight
Nautical Twilight
Astronomical Twilight
Moon
Length of Visible Light
Length of Day
Tomorrow will be .
, % of the Moon is Illuminated

Today's Extremes

State Highs State Lows

Community

WunderPhotos

Upload Photos

1,850,438 photos uploaded!

WunderBlogs® & News

Nearby

Air Quality

  Air Quality AQ Index Pollutant
Not available.

Snow Depth

Station Depth Elevation

Earthquake Activity

City Distance Mag. Time & Date
Minimum magnitude displayed is 2.5.

Coastal Water Temperatures

Place Temperature

Stations

Nearby Weather Stations

Station Location Temp. Windchill Dew Point Humidity Wind Precip. Elev Updated Type